Wichita Mid Continent Airport
KICT : now visible

Airfield :











YOU CAN JOIN US ON...

 
LOGIN :

Register | Disclaimer

   EN    FR    IT 

 









Legend :    VFR   Marginal VFR   IFR   Intensive IFR   Very Intensive IFR
Visi :
Ceiling :
>= 8 km
>= 3000ft
5 to 8 km
1000 to 3000 ft
1500m to 5 km
500 to 1000 ft
800 to 1500m
200 to 500 ft
< 800m
< 200 ft
Symbols :   Thunderstorms  Fog  Heavy snow  Heavy precipitations  Wind > 20 kt






- Airport Elevation : 1333 ft
- IATA code : ICT


KICT - Wichita Mid Continent

CURRENT METAR :
  • 060453Z 30003KT 10SM FEW190 14/08 A3016 RMK AO2 SLP204 T01440083

EXPIRED METARs :
  • 060353Z 00000KT 7SM CLR 14/09 A3015 RMK AO2 SLP203 T01440089
  • 060253Z COR 25006KT 10SM FEW190 14/09 A3015 RMK AO2 SLP202 T01440089 51011
  • 060153Z 31004KT 10SM FEW190 20/09 A3014 RMK AO2 SLP197 T02000094

TAF KICT
Valid from the 06 at 00:00 until the 07 at 00:00 UTC


052329Z 0600/0624 34013KT P6SM FEW080 SCT250
FM060500 35007KT P6SM SCT250
FM061600 33007KT P6SM FEW080
KZKC FIR / North America



MET'MAP, your aeronautical weather chart ! - Copyright ORBIFLY December 2007 - Disclaimer

ORBIFLY MET'MAP TEAM :

Programming & Development : Alexandra Zaïnal
Original concept : Baudouin d'Aumeries
Technical & hardware support : Manuel Goepfert
Assistance : Marc-Olivier Méhu




SOURCES & CREDITS :

   NOAA       Earth
Advisory